Time;durP1;ratioP1;P1;durP2;ratioP2;P2;SDS_P1;SDS_P2;PMS_P1;PMS_P2;Temp;Humidity;BMP_temperature;BMP_pressure;BME280_temperature;BME280_humidity;BME280_pressure;Samples;Min_cycle;Max_cycle;Signal;HPM_P1;HPM_P2
2021/12/27 00:00:47;;;;;;;7.37;3.10;;;-3.50;96.30;;;;;;4901875;29;20532;-81
2021/12/27 00:03:13;;;;;;;7.03;4.27;;;-3.50;96.30;;;;;;4902857;29;20204;-81
2021/12/27 00:05:39;;;;;;;6.90;3.00;;;-3.50;96.30;;;;;;4901802;29;20984;-81
2021/12/27 00:08:04;;;;;;;7.40;3.67;;;-3.50;96.30;;;;;;4901386;29;20185;-81
2021/12/27 00:10:30;;;;;;;7.13;3.80;;;-3.50;96.30;;;;;;4901835;29;20177;-81
2021/12/27 00:12:56;;;;;;;6.50;3.67;;;-3.50;96.30;;;;;;4901888;29;20181;-81
2021/12/27 00:15:23;;;;;;;3.90;2.97;;;-3.50;96.30;;;;;;4901809;29;20196;-82
2021/12/27 00:17:48;;;;;;;5.07;3.33;;;-3.50;96.30;;;;;;4902887;29;20460;-81
2021/12/27 00:20:17;;;;;;;7.07;3.57;;;-3.50;96.30;;;;;;4902056;29;20429;-81
2021/12/27 00:22:45;;;;;;;6.03;2.43;;;-3.50;96.30;;;;;;4901633;29;20204;-81
2021/12/27 00:25:12;;;;;;;5.60;2.90;;;-3.50;96.30;;;;;;4901843;29;20425;-81
2021/12/27 00:27:38;;;;;;;5.57;2.97;;;-3.50;96.30;;;;;;4902999;29;20459;-81
2021/12/27 00:30:05;;;;;;;13.73;3.87;;;-3.50;96.30;;;;;;4901310;29;20508;-81
2021/12/27 00:32:33;;;;;;;6.80;4.00;;;-3.50;96.30;;;;;;4901152;29;20212;-81
2021/12/27 00:34:58;;;;;;;10.13;4.40;;;-3.50;96.30;;;;;;4902921;29;21001;-81
2021/12/27 00:37:24;;;;;;;7.00;2.63;;;-3.50;96.30;;;;;;4901617;29;20464;-81
2021/12/27 00:39:49;;;;;;;6.00;3.47;;;-3.50;96.30;;;;;;4901610;29;20179;-81
2021/12/27 00:42:15;;;;;;;5.33;2.40;;;-3.50;96.30;;;;;;4900981;29;20256;-81
2021/12/27 00:44:40;;;;;;;15.30;4.27;;;-3.50;96.30;;;;;;4901424;29;20221;-81
2021/12/27 00:47:06;;;;;;;10.10;5.40;;;-3.50;96.30;;;;;;4901183;29;20177;-81
2021/12/27 00:49:32;;;;;;;14.23;5.30;;;-3.50;96.30;;;;;;4903185;29;20209;-81
2021/12/27 00:51:58;;;;;;;8.80;4.90;;;-3.50;96.30;;;;;;4901074;29;20204;-81
2021/12/27 00:54:23;;;;;;;11.27;4.87;;;-3.50;96.30;;;;;;4901733;29;20453;-81
2021/12/27 00:56:49;;;;;;;13.33;4.67;;;-3.50;96.30;;;;;;4902025;29;20424;-81
2021/12/27 00:59:15;;;;;;;7.37;4.00;;;-3.50;96.30;;;;;;4901461;29;20192;-81
2021/12/27 05:02:28;;;;;;;18.80;8.70;;;-3.50;96.30;;;;;;4936985;23;20984;-80
2021/12/27 05:04:54;;;;;;;22.30;9.53;;;-3.50;96.30;;;;;;4901963;29;20465;-80
2021/12/27 05:07:20;;;;;;;12.70;7.63;;;-3.50;96.30;;;;;;4900951;29;20645;-80
2021/12/27 05:09:45;;;;;;;14.90;8.00;;;-3.50;96.30;;;;;;4903940;29;20173;-81
2021/12/27 05:12:11;;;;;;;14.70;8.77;;;-3.40;96.30;;;;;;4904430;29;20265;-80
2021/12/27 05:14:36;;;;;;;17.13;9.33;;;-3.40;96.30;;;;;;4901736;29;20326;-80
2021/12/27 05:17:02;;;;;;;18.80;9.43;;;-3.40;96.30;;;;;;4908051;29;20543;-80
2021/12/27 05:19:28;;;;;;;21.73;9.77;;;-3.40;96.30;;;;;;4902223;29;20177;-80
2021/12/27 05:21:53;;;;;;;15.57;8.03;;;-3.40;96.30;;;;;;4897987;29;20212;-81
2021/12/27 05:24:21;;;;;;;15.80;8.50;;;-3.30;96.30;;;;;;4896645;29;20173;-81
2021/12/27 05:26:46;;;;;;;17.03;8.37;;;-3.20;96.30;;;;;;4888513;29;20165;-81
2021/12/27 05:29:13;;;;;;;16.00;7.90;;;-3.20;96.30;;;;;;4880321;29;20517;-80
2021/12/27 05:31:38;;;;;;;13.37;6.90;;;-3.10;96.30;;;;;;4899041;29;20201;-80
2021/12/27 05:34:04;;;;;;;17.80;8.57;;;-3.20;96.30;;;;;;4899749;29;20497;-81
2021/12/27 05:36:29;;;;;;;13.73;5.47;;;-3.20;96.30;;;;;;4900760;29;20189;-81
2021/12/27 05:38:55;;;;;;;13.13;7.43;;;-3.20;96.30;;;;;;4899386;29;20237;-81
2021/12/27 05:41:20;;;;;;;13.83;7.67;;;-3.10;96.30;;;;;;4899059;29;20205;-80
2021/12/27 05:43:46;;;;;;;12.57;7.10;;;-3.10;96.30;;;;;;4900461;29;20563;-80
2021/12/27 05:46:12;;;;;;;17.60;9.10;;;-3.10;96.30;;;;;;4899054;29;20256;-81
2021/12/27 05:48:37;;;;;;;12.73;8.50;;;-3.10;96.30;;;;;;4900556;29;20197;-81
2021/12/27 05:51:03;;;;;;;12.63;7.50;;;-3.00;96.30;;;;;;4898611;29;20615;-80
2021/12/27 05:53:28;;;;;;;12.90;8.00;;;-3.00;96.30;;;;;;4899343;29;20184;-81
2021/12/27 05:55:54;;;;;;;15.53;8.90;;;-3.00;96.30;;;;;;4897677;29;20191;-81
2021/12/27 05:58:19;;;;;;;15.40;6.53;;;-3.00;96.30;;;;;;4898646;29;20546;-80
2021/12/27 06:00:45;;;;;;;14.33;8.77;;;-3.10;96.30;;;;;;4898895;29;20219;-81
2021/12/27 06:03:10;;;;;;;13.43;7.77;;;-3.00;96.30;;;;;;4898571;29;20197;-80
2021/12/27 06:05:36;;;;;;;16.73;8.13;;;-3.10;96.30;;;;;;4899066;29;20176;-80
2021/12/27 06:08:01;;;;;;;14.73;6.70;;;-3.10;96.30;;;;;;4898812;29;20221;-79
2021/12/27 06:10:27;;;;;;;16.60;6.70;;;-3.10;96.30;;;;;;4899979;29;20183;-80
2021/12/27 06:12:53;;;;;;;12.40;7.43;;;-3.10;96.30;;;;;;4900687;29;20176;-80
2021/12/27 06:15:19;;;;;;;12.43;6.80;;;-3.00;96.30;;;;;;4899215;29;20212;-79
2021/12/27 06:17:44;;;;;;;14.33;8.20;;;-3.00;96.30;;;;;;4897403;29;20176;-78
2021/12/27 06:20:13;;;;;;;14.13;7.23;;;-3.10;96.30;;;;;;4896498;29;20188;-78
2021/12/27 06:22:43;;;;;;;10.37;6.17;;;-3.10;96.30;;;;;;4896612;29;20193;-79
2021/12/27 06:25:09;;;;;;;12.27;6.30;;;-3.10;96.30;;;;;;4896623;29;20421;-79
2021/12/27 06:27:34;;;;;;;5.67;4.20;;;-3.20;96.30;;;;;;4897158;29;20413;-78
2021/12/27 06:30:02;;;;;;;7.40;4.83;;;-3.10;96.30;;;;;;4897789;29;20199;-78
2021/12/27 06:32:28;;;;;;;10.57;6.00;;;-3.20;96.30;;;;;;4896318;29;20208;-79
2021/12/27 06:34:53;;;;;;;12.30;8.10;;;-3.10;96.30;;;;;;4896443;29;20425;-79
2021/12/27 06:37:19;;;;;;;11.93;7.50;;;-3.10;96.30;;;;;;4898188;29;20184;-79
2021/12/27 06:39:45;;;;;;;7.87;4.37;;;-3.10;96.30;;;;;;4901072;29;20185;-80
2021/12/27 06:42:10;;;;;;;7.53;4.40;;;-3.10;96.30;;;;;;4898522;29;20536;-80
2021/12/27 06:44:36;;;;;;;12.30;7.23;;;-3.10;96.30;;;;;;4898257;29;20189;-80
2021/12/27 06:47:02;;;;;;;11.50;6.90;;;-3.10;96.30;;;;;;4897522;29;20208;-80
2021/12/27 06:49:28;;;;;;;14.70;8.23;;;-3.10;96.30;;;;;;4897271;29;20204;-79
2021/12/27 06:51:54;;;;;;;15.63;6.70;;;-3.10;96.30;;;;;;4898556;29;20441;-79
2021/12/27 06:54:19;;;;;;;16.63;8.07;;;-3.10;96.30;;;;;;4899241;29;20418;-79
2021/12/27 06:56:45;;;;;;;17.07;8.63;;;-3.10;96.30;;;;;;4897013;29;20941;-80
2021/12/27 06:59:11;;;;;;;16.20;9.80;;;-3.00;96.30;;;;;;4898091;29;20177;-80
2021/12/27 07:01:36;;;;;;;13.90;6.93;;;-3.10;96.30;;;;;;4897231;29;20218;-78
2021/12/27 07:04:02;;;;;;;13.30;6.10;;;-3.00;96.30;;;;;;4897117;29;20178;-80
2021/12/27 07:06:28;;;;;;;18.43;10.43;;;-3.10;96.30;;;;;;4897523;29;20634;-79
2021/12/27 07:08:54;;;;;;;15.27;7.80;;;-3.00;96.30;;;;;;4898623;29;20558;-80
2021/12/27 07:11:19;;;;;;;14.23;7.37;;;-3.00;96.30;;;;;;4898315;29;20446;-80
2021/12/27 07:13:45;;;;;;;12.57;6.30;;;-2.90;96.30;;;;;;4898178;29;20272;-80
2021/12/27 07:16:11;;;;;;;12.27;7.80;;;-2.90;96.30;;;;;;4897317;29;20177;-80
2021/12/27 07:18:36;;;;;;;12.47;7.83;;;-2.90;96.30;;;;;;4898486;29;20184;-80
2021/12/27 07:21:02;;;;;;;10.80;6.73;;;-3.00;96.30;;;;;;4899150;29;20201;-80
2021/12/27 07:23:27;;;;;;;16.10;8.23;;;-3.00;96.30;;;;;;4898063;29;20216;-80
2021/12/27 07:25:53;;;;;;;18.23;8.30;;;-3.00;96.30;;;;;;4897267;29;20184;-80
2021/12/27 07:28:18;;;;;;;16.30;7.67;;;-3.10;96.30;;;;;;4898052;29;20588;-79
2021/12/27 07:30:44;;;;;;;16.00;7.30;;;-3.00;96.30;;;;;;4899145;29;20209;-79
2021/12/27 07:33:10;;;;;;;11.90;6.10;;;-3.00;96.30;;;;;;4897234;29;20189;-80
2021/12/27 07:35:36;;;;;;;19.13;8.10;;;-3.00;96.30;;;;;;4896650;29;20641;-79
2021/12/27 07:38:01;;;;;;;10.40;6.67;;;-3.00;96.30;;;;;;4896689;29;20188;-80
2021/12/27 07:40:27;;;;;;;10.40;6.47;;;-2.90;96.30;;;;;;4896137;29;20192;-79
2021/12/27 07:42:53;;;;;;;16.87;9.17;;;-2.90;96.30;;;;;;4896971;29;20290;-79
2021/12/27 07:45:19;;;;;;;11.93;5.77;;;-2.80;96.30;;;;;;4881729;29;20418;-81
2021/12/27 07:47:45;;;;;;;16.40;8.30;;;-2.80;96.30;;;;;;4860284;29;20553;-79
2021/12/27 07:50:11;;;;;;;15.67;8.97;;;-2.70;96.30;;;;;;4860015;29;20175;-80
2021/12/27 07:52:36;;;;;;;9.63;7.43;;;-2.70;96.30;;;;;;4858223;29;20182;-79
2021/12/27 07:55:03;;;;;;;13.03;8.53;;;-2.60;96.30;;;;;;4860630;29;20277;-79
2021/12/27 07:57:29;;;;;;;8.37;6.00;;;-2.70;96.30;;;;;;4859378;29;20246;-80
2021/12/27 07:59:54;;;;;;;11.20;5.77;;;-2.60;96.30;;;;;;4875037;29;20442;-80
2021/12/27 08:02:20;;;;;;;16.33;9.17;;;-2.60;96.30;;;;;;4878573;29;20235;-79
2021/12/27 08:04:45;;;;;;;15.57;8.37;;;-2.50;96.30;;;;;;4878706;29;20238;-79
2021/12/27 08:07:11;;;;;;;14.33;8.60;;;-2.50;96.30;;;;;;4876683;29;20182;-79
2021/12/27 08:09:37;;;;;;;14.87;9.03;;;-2.50;96.30;;;;;;4884998;29;20188;-74
2021/12/27 08:12:04;;;;;;;11.83;6.53;;;-2.50;96.30;;;;;;4896582;29;20212;-74
2021/12/27 08:14:29;;;;;;;12.20;6.53;;;-2.40;96.30;;;;;;4896637;29;20426;-75
2021/12/27 08:16:55;;;;;;;13.50;5.80;;;-2.40;96.30;;;;;;4896076;29;20811;-73
2021/12/27 08:19:20;;;;;;;11.27;5.97;;;-2.40;96.30;;;;;;4897061;29;20196;-73
2021/12/27 08:21:46;;;;;;;13.03;7.90;;;-2.50;96.30;;;;;;4900084;29;20279;-72
2021/12/27 08:24:11;;;;;;;10.77;5.50;;;-2.40;96.30;;;;;;4900062;29;20177;-72
2021/12/27 08:26:38;;;;;;;17.10;8.87;;;-2.40;96.30;;;;;;4882692;29;20190;-73
2021/12/27 08:29:09;;;;;;;9.47;6.60;;;-2.40;96.30;;;;;;4878694;29;20182;-72
2021/12/27 08:31:34;;;;;;;13.73;7.63;;;-2.40;96.30;;;;;;4878623;29;20556;-73
2021/12/27 08:34:00;;;;;;;9.07;5.90;;;-2.40;96.30;;;;;;4881215;29;20927;-72
2021/12/27 08:36:26;;;;;;;10.50;6.30;;;-2.40;96.30;;;;;;4880411;29;20193;-73
2021/12/27 08:38:51;;;;;;;11.60;6.97;;;-2.40;96.30;;;;;;4890276;29;20212;-72
2021/12/27 08:41:18;;;;;;;10.60;5.87;;;-2.40;96.30;;;;;;4888934;29;20226;-73
2021/12/27 08:43:44;;;;;;;15.40;8.07;;;-2.40;96.30;;;;;;4880343;29;20192;-72
2021/12/27 08:46:10;;;;;;;10.17;6.17;;;-2.40;96.30;;;;;;4880558;29;20509;-72
2021/12/27 08:48:36;;;;;;;15.13;6.80;;;-2.50;96.30;;;;;;4880811;29;20418;-73
2021/12/27 08:51:01;;;;;;;13.93;7.10;;;-2.50;96.30;;;;;;4880978;29;20741;-73
2021/12/27 08:53:27;;;;;;;9.77;6.23;;;-2.50;96.30;;;;;;4880917;29;20422;-72
2021/12/27 08:55:53;;;;;;;11.23;5.53;;;-2.40;96.30;;;;;;4879201;29;20192;-72
2021/12/27 08:58:19;;;;;;;28.10;7.20;;;-2.40;96.30;;;;;;4880205;29;20553;-72
2021/12/27 09:00:44;;;;;;;13.60;9.10;;;-2.40;96.30;;;;;;4871580;29;20310;-81
2021/12/27 09:03:11;;;;;;;10.77;5.10;;;-2.30;96.30;;;;;;4862394;29;20206;-80
2021/12/27 09:05:38;;;;;;;13.60;8.53;;;-2.20;96.30;;;;;;4863398;29;20167;-81
2021/12/27 09:08:04;;;;;;;10.53;5.53;;;-2.20;96.30;;;;;;4864239;29;20408;-80
2021/12/27 09:10:30;;;;;;;14.53;7.77;;;-2.30;96.30;;;;;;4881760;29;20545;-81
2021/12/27 09:12:55;;;;;;;11.30;6.77;;;-2.20;96.30;;;;;;4880452;29;20205;-80
2021/12/27 09:15:21;;;;;;;21.83;9.70;;;-2.20;96.30;;;;;;4881625;29;21087;-79
2021/12/27 09:17:47;;;;;;;17.40;9.93;;;-2.10;96.30;;;;;;4881218;29;20182;-79
2021/12/27 09:20:13;;;;;;;14.27;8.73;;;-2.00;96.30;;;;;;4882351;29;20176;-80
2021/12/27 09:22:39;;;;;;;17.00;8.57;;;-2.00;96.30;;;;;;4881996;29;20970;-79
2021/12/27 09:25:05;;;;;;;18.80;9.17;;;-1.90;96.30;;;;;;4881084;29;20182;-79
2021/12/27 09:27:31;;;;;;;11.97;5.97;;;-1.80;96.30;;;;;;4879933;29;20971;-79
2021/12/27 09:29:56;;;;;;;13.50;7.87;;;-1.90;96.30;;;;;;4881280;29;20490;-81
2021/12/27 09:32:22;;;;;;;15.07;8.77;;;-1.90;96.30;;;;;;4881260;29;20237;-78
2021/12/27 09:34:48;;;;;;;12.17;7.90;;;-1.80;96.30;;;;;;4880563;29;20554;-78
2021/12/27 09:37:14;;;;;;;17.37;8.60;;;-1.70;96.30;;;;;;4878615;29;20174;-78
2021/12/27 09:39:39;;;;;;;19.40;9.37;;;-1.80;96.30;;;;;;4879291;29;20433;-79
2021/12/27 09:42:06;;;;;;;17.93;8.10;;;-1.80;96.30;;;;;;4869107;29;20222;-78
2021/12/27 09:44:31;;;;;;;12.33;8.10;;;-1.80;96.30;;;;;;4869524;29;20183;-79
2021/12/27 09:46:57;;;;;;;15.10;7.70;;;-1.70;96.30;;;;;;4898519;29;20814;-79
2021/12/27 09:49:29;;;;;;;14.67;8.40;;;-1.80;96.30;;;;;;4889051;29;20185;-79
2021/12/27 09:51:57;;;;;;;14.50;9.03;;;-1.70;96.30;;;;;;4874405;29;20229;-78
2021/12/27 09:54:27;;;;;;;14.47;8.30;;;-1.60;96.30;;;;;;4860590;29;20422;-78
2021/12/27 09:56:54;;;;;;;18.73;10.47;;;-1.50;96.30;;;;;;4879081;29;20430;-79
2021/12/27 09:59:20;;;;;;;15.23;8.63;;;-1.40;96.30;;;;;;4880623;29;20534;-78
2021/12/27 10:01:46;;;;;;;13.33;8.30;;;-1.30;96.30;;;;;;4885828;29;20563;-78
2021/12/27 10:04:12;;;;;;;15.20;7.80;;;-1.40;96.30;;;;;;4878564;29;20469;-79
2021/12/27 10:06:38;;;;;;;22.90;9.20;;;-1.20;96.30;;;;;;4876522;29;20943;-78
2021/12/27 10:09:05;;;;;;;22.00;10.20;;;-1.20;96.30;;;;;;4876960;29;20456;-79
2021/12/27 10:11:40;;;;;;;14.23;8.93;;;-1.10;96.30;;;;;;4885355;29;20478;-79
2021/12/27 10:14:08;;;;;;;15.80;10.47;;;-1.10;96.30;;;;;;4879550;29;20409;-78
2021/12/27 10:16:55;;;;;;;15.87;8.97;;;-1.10;96.30;;;;;;4883879;29;20483;-80
2021/12/27 10:19:23;;;;;;;18.90;8.50;;;-1.30;96.30;;;;;;4878413;29;20489;-79
2021/12/27 10:21:52;;;;;;;15.97;9.60;;;-1.30;96.30;;;;;;4878139;29;20470;-80
2021/12/27 10:24:21;;;;;;;17.60;9.73;;;-1.20;96.30;;;;;;4878034;29;20414;-80
2021/12/27 10:26:49;;;;;;;15.40;8.20;;;-1.00;96.30;;;;;;4877732;29;20510;-79
2021/12/27 10:29:23;;;;;;;16.10;9.00;;;-1.00;96.30;;;;;;4879507;29;20487;-80
2021/12/27 10:31:59;;;;;;;12.53;7.30;;;-0.90;96.30;;;;;;4878284;29;20859;-80
2021/12/27 10:34:29;;;;;;;21.07;13.07;;;-0.90;96.30;;;;;;4878252;29;20466;-79
2021/12/27 10:37:03;;;;;;;22.27;10.60;;;-0.90;96.30;;;;;;4877995;29;20466;-80
2021/12/27 10:40:10;;;;;;;15.10;8.13;;;-0.70;96.30;;;;;;4879289;29;20886;-80
2021/12/27 10:42:43;;;;;;;8.93;5.43;;;-0.60;96.30;;;;;;4878835;29;20516;-80
2021/12/27 10:45:12;;;;;;;14.80;9.17;;;-0.50;96.30;;;;;;4879721;29;20398;-81
2021/12/27 10:47:41;;;;;;;12.90;8.33;;;0.00;96.30;;;;;;4879502;29;20414;-80
2021/12/27 10:50:28;;;;;;;13.70;7.70;;;0.40;96.30;;;;;;4878252;29;20450;-81
2021/12/27 10:52:57;;;;;;;15.63;8.70;;;0.60;96.30;;;;;;4878302;29;20914;-81
2021/12/27 10:55:35;;;;;;;16.70;9.23;;;0.80;96.30;;;;;;4863500;29;20812;-79
2021/12/27 10:58:22;;;;;;;12.03;6.23;;;0.50;96.30;;;;;;4858764;29;20971;-82
2021/12/27 11:00:59;;;;;;;17.33;12.40;;;-0.10;96.30;;;;;;4858783;29;20462;-81
2021/12/27 11:03:36;;;;;;;14.70;7.80;;;-0.10;96.30;;;;;;4860199;29;20474;-80
2021/12/27 11:06:04;;;;;;;15.57;7.83;;;-0.20;96.30;;;;;;4859043;29;20859;-80
2021/12/27 11:08:31;;;;;;;14.27;8.03;;;-0.30;96.30;;;;;;4876861;29;20930;-81
2021/12/27 11:10:57;;;;;;;15.97;8.97;;;-0.30;96.30;;;;;;4877365;29;20493;-80
2021/12/27 11:13:23;;;;;;;14.70;8.60;;;-0.20;96.30;;;;;;4877440;29;20429;-81
2021/12/27 11:15:49;;;;;;;16.00;8.87;;;-0.10;96.30;;;;;;4878617;29;20520;-80
2021/12/27 11:18:15;;;;;;;14.90;8.30;;;0.10;96.30;;;;;;4877638;29;20433;-79
2021/12/27 11:20:46;;;;;;;10.57;6.60;;;0.10;96.30;;;;;;4878496;29;20930;-80
2021/12/27 11:23:13;;;;;;;13.67;7.53;;;0.10;96.30;;;;;;4878871;29;20200;-80
2021/12/27 11:25:42;;;;;;;10.33;7.30;;;-0.10;96.30;;;;;;4877433;29;20516;-80
2021/12/27 11:28:34;;;;;;;10.20;6.60;;;-0.10;96.30;;;;;;4877986;29;20426;-79
2021/12/27 11:31:05;;;;;;;15.33;7.53;;;-0.20;96.30;;;;;;4882042;29;20444;-80
2021/12/27 11:33:30;;;;;;;9.93;5.33;;;-0.20;96.30;;;;;;4876955;29;20436;-79
2021/12/27 11:35:59;;;;;;;12.33;7.47;;;-0.30;96.30;;;;;;4877815;29;20772;-79
2021/12/27 11:38:37;;;;;;;11.40;5.67;;;-0.30;96.30;;;;;;4878435;29;20174;-79
2021/12/27 11:41:23;;;;;;;13.30;8.13;;;-0.30;96.30;;;;;;4876724;29;20460;-79
2021/12/27 11:43:54;;;;;;;18.13;8.30;;;-0.20;96.30;;;;;;4877212;29;20968;-78
2021/12/27 11:46:21;;;;;;;15.40;8.80;;;-0.20;96.30;;;;;;4877695;29;20768;-78
2021/12/27 11:48:55;;;;;;;12.30;6.77;;;-0.30;96.30;;;;;;4861322;29;20438;-80
2021/12/27 11:51:32;;;;;;;17.40;9.33;;;-0.50;96.30;;;;;;4858091;29;20447;-79
2021/12/27 11:53:59;;;;;;;18.97;9.40;;;-0.80;96.30;;;;;;4861324;29;20438;-80
2021/12/27 11:56:37;;;;;;;12.87;8.57;;;-0.70;96.30;;;;;;4868552;29;20426;-79
2021/12/27 11:59:22;;;;;;;15.37;8.90;;;-0.70;96.30;;;;;;4880998;29;20532;-78
2021/12/27 12:01:53;;;;;;;10.90;7.53;;;-0.80;96.30;;;;;;4880282;29;20950;-79
2021/12/27 12:04:45;;;;;;;17.17;8.70;;;-0.60;96.30;;;;;;4880394;29;20429;-79
2021/12/27 12:07:33;;;;;;;11.70;8.10;;;-0.40;96.30;;;;;;4865925;29;20513;-79
2021/12/27 12:10:04;;;;;;;12.57;8.80;;;0.10;96.30;;;;;;4881303;29;20459;-79
2021/12/27 12:12:30;;;;;;;15.87;8.87;;;0.20;96.30;;;;;;4867572;29;20503;-78
2021/12/27 12:14:57;;;;;;;16.00;6.93;;;0.30;96.30;;;;;;4875953;29;20445;-78
2021/12/27 12:17:40;;;;;;;18.30;8.27;;;0.20;96.30;;;;;;4881099;29;20410;-79
2021/12/27 12:20:25;;;;;;;10.00;6.93;;;0.10;96.30;;;;;;4862068;29;20548;-78
2021/12/27 12:23:20;;;;;;;15.87;8.53;;;0.10;96.30;;;;;;4875773;29;20465;-78
2021/12/27 12:25:46;;;;;;;12.03;6.80;;;0.30;96.30;;;;;;4867655;29;20923;-78
2021/12/27 12:28:17;;;;;;;11.73;8.33;;;0.30;96.30;;;;;;4880235;29;20462;-78
2021/12/27 12:30:47;;;;;;;13.57;7.13;;;0.50;96.30;;;;;;4879576;29;20233;-78
2021/12/27 12:33:23;;;;;;;12.57;6.67;;;0.30;96.30;;;;;;4865414;29;20423;-78
2021/12/27 12:35:58;;;;;;;11.73;6.77;;;0.60;96.30;;;;;;4879009;29;20436;-78
2021/12/27 12:38:38;;;;;;;12.60;8.53;;;0.60;96.30;;;;;;4881374;29;20410;-79
2021/12/27 12:41:11;;;;;;;8.27;5.80;;;0.30;96.30;;;;;;4884827;29;20448;-78
2021/12/27 12:43:54;;;;;;;10.17;6.87;;;0.20;96.30;;;;;;4880676;29;20469;-77
2021/12/27 12:46:26;;;;;;;12.17;6.73;;;0.10;96.30;;;;;;4879019;29;20446;-76
2021/12/27 12:48:59;;;;;;;7.50;6.00;;;0.00;96.30;;;;;;4879732;29;20414;-77
2021/12/27 12:51:41;;;;;;;12.23;7.37;;;0.00;96.30;;;;;;4880780;29;20869;-80
2021/12/27 12:54:24;;;;;;;9.33;6.73;;;0.00;96.30;;;;;;4880760;29;20795;-78
2021/12/27 12:57:01;;;;;;;13.20;7.87;;;0.10;96.30;;;;;;4879997;29;20887;-79
2021/12/27 12:59:28;;;;;;;10.93;7.30;;;0.10;96.30;;;;;;4880567;29;20422;-79
2021/12/27 13:01:55;;;;;;;9.77;6.67;;;0.00;96.30;;;;;;4874952;29;20475;-79
2021/12/27 13:04:20;;;;;;;10.60;7.70;;;0.00;96.30;;;;;;4861819;29;20794;-79
2021/12/27 13:06:46;;;;;;;12.40;7.77;;;0.10;96.30;;;;;;4877090;29;20430;-77
2021/12/27 13:09:11;;;;;;;10.83;6.53;;;0.20;96.30;;;;;;4873852;29;20647;-76
2021/12/27 13:11:38;;;;;;;10.90;6.43;;;0.30;96.30;;;;;;4885585;29;20197;-78
2021/12/27 13:14:04;;;;;;;9.43;6.63;;;0.50;96.30;;;;;;4881649;29;20188;-77
2021/12/27 13:16:30;;;;;;;10.00;6.00;;;0.70;96.30;;;;;;4878812;29;20422;-76
2021/12/27 13:18:56;;;;;;;7.77;5.27;;;0.80;96.30;;;;;;4880525;29;20411;-77
2021/12/27 13:21:22;;;;;;;9.40;6.80;;;0.80;96.30;;;;;;4878953;29;20966;-76
2021/12/27 13:23:47;;;;;;;9.10;5.93;;;0.90;96.30;;;;;;4879089;29;20433;-77
2021/12/27 13:26:16;;;;;;;9.70;6.63;;;0.90;96.30;;;;;;4879799;29;20188;-78
2021/12/27 13:28:44;;;;;;;10.57;6.60;;;0.90;96.30;;;;;;4879033;29;20875;-77
2021/12/27 13:31:14;;;;;;;9.93;5.93;;;0.60;96.30;;;;;;4880285;29;20442;-78
2021/12/27 13:33:46;;;;;;;9.07;6.53;;;0.60;96.30;;;;;;4880285;29;20425;-76
2021/12/27 13:36:47;;;;;;;8.23;5.93;;;0.60;96.30;;;;;;4879574;29;20837;-78
2021/12/27 13:39:16;;;;;;;8.73;5.80;;;0.50;96.30;;;;;;4789324;29;20453;-77
2021/12/27 13:41:50;;;;;;;10.90;6.30;;;0.30;96.30;;;;;;4861652;29;20466;-78
2021/12/27 13:44:34;;;;;;;11.17;6.10;;;0.00;96.30;;;;;;4860342;29;20510;-77
2021/12/27 13:47:03;;;;;;;11.93;6.40;;;0.10;96.30;;;;;;4859523;29;20430;-78
2021/12/27 13:49:29;;;;;;;10.83;4.90;;;0.00;96.30;;;;;;4860866;29;20427;-78
2021/12/27 13:52:05;;;;;;;10.97;7.27;;;0.00;96.30;;;;;;4858179;29;20447;-78
2021/12/27 13:54:42;;;;;;;10.90;7.13;;;0.00;96.30;;;;;;4859503;29;20170;-77
2021/12/27 13:57:08;;;;;;;13.83;7.57;;;0.00;96.30;;;;;;4859800;29;20495;-77
2021/12/27 13:59:38;;;;;;;8.87;5.80;;;-0.10;96.30;;;;;;4865437;29;20434;-75
2021/12/27 14:02:05;;;;;;;11.60;7.83;;;-0.20;96.30;;;;;;4878106;29;20900;-75
2021/12/27 14:04:32;;;;;;;13.97;8.23;;;-0.20;96.30;;;;;;4871248;29;20462;-76
2021/12/27 14:07:00;;;;;;;10.23;6.67;;;-0.20;96.30;;;;;;4873825;29;20418;-76
2021/12/27 14:09:31;;;;;;;14.23;7.60;;;-0.30;96.30;;;;;;4864267;29;20486;-76
2021/12/27 14:12:05;;;;;;;10.13;7.27;;;-0.40;96.30;;;;;;4861745;29;20462;-76
2021/12/27 14:14:48;;;;;;;10.97;7.10;;;-0.50;96.30;;;;;;4860775;29;20434;-76
2021/12/27 14:17:18;;;;;;;13.23;7.23;;;-0.60;96.30;;;;;;4858606;29;20470;-76
2021/12/27 14:19:59;;;;;;;15.23;8.67;;;-0.70;96.30;;;;;;4861109;29;20443;-76
2021/12/27 14:22:26;;;;;;;11.43;7.70;;;-0.70;96.30;;;;;;4860804;29;20533;-76
2021/12/27 14:24:57;;;;;;;12.90;8.23;;;-0.80;96.30;;;;;;4860558;29;20426;-75
2021/12/27 14:27:35;;;;;;;13.53;8.33;;;-0.90;96.30;;;;;;4859766;29;20419;-75
2021/12/27 14:30:11;;;;;;;10.13;6.33;;;-1.00;96.30;;;;;;4860545;29;20458;-75
2021/12/27 14:32:46;;;;;;;9.53;6.10;;;-1.00;96.30;;;;;;4860640;29;20438;-75
2021/12/27 14:35:24;;;;;;;13.57;8.93;;;-1.10;96.30;;;;;;4876537;29;20817;-75
2021/12/27 14:38:10;;;;;;;11.53;7.80;;;-1.20;96.30;;;;;;5069275;28;20573;-75
2021/12/27 14:40:38;;;;;;;18.63;10.60;;;-1.20;96.30;;;;;;5068190;28;20421;-76
2021/12/27 14:43:04;;;;;;;17.27;9.00;;;-1.20;96.30;;;;;;5067252;28;20492;-75
2021/12/27 14:45:31;;;;;;;15.70;9.27;;;-1.20;96.30;;;;;;5060482;28;20457;-75
2021/12/27 14:47:57;;;;;;;25.17;18.27;;;-1.30;96.30;;;;;;5066307;28;20420;-75
2021/12/27 14:50:24;;;;;;;15.97;10.33;;;-1.30;96.30;;;;;;5068048;28;20413;-74
2021/12/27 14:52:50;;;;;;;16.87;9.97;;;-1.40;96.30;;;;;;5064911;28;20424;-76
2021/12/27 14:55:17;;;;;;;16.33;10.37;;;-1.30;96.30;;;;;;5066232;28;20441;-77
2021/12/27 14:57:43;;;;;;;25.20;16.50;;;-1.40;96.30;;;;;;5064486;28;20465;-77
2021/12/27 15:00:13;;;;;;;15.50;9.20;;;-1.40;96.30;;;;;;5065969;28;20463;-76
2021/12/27 15:02:39;;;;;;;29.07;13.80;;;-1.40;96.30;;;;;;5067474;28;20422;-76
2021/12/27 15:05:05;;;;;;;13.93;8.57;;;-1.40;96.30;;;;;;5062841;28;20512;-76
2021/12/27 15:07:32;;;;;;;21.83;15.40;;;-1.40;96.30;;;;;;5064335;28;20957;-76
2021/12/27 15:09:57;;;;;;;17.00;11.23;;;-1.50;96.30;;;;;;5061550;28;20419;-75
2021/12/27 15:12:23;;;;;;;18.40;11.60;;;-1.50;96.30;;;;;;5061839;28;20510;-76
2021/12/27 15:14:48;;;;;;;29.80;15.40;;;-1.50;96.30;;;;;;5064347;28;20199;-75
2021/12/27 15:17:14;;;;;;;25.63;14.10;;;-1.50;96.30;;;;;;5060240;28;20206;-76
2021/12/27 15:19:39;;;;;;;21.93;10.80;;;-1.50;96.30;;;;;;5062280;28;20258;-76
2021/12/27 15:22:05;;;;;;;20.27;12.70;;;-1.50;96.30;;;;;;5067919;28;20198;-75
2021/12/27 15:24:30;;;;;;;18.27;12.63;;;-1.50;96.30;;;;;;5068425;28;20175;-75
2021/12/27 15:26:56;;;;;;;14.87;10.10;;;-1.60;96.30;;;;;;5068092;28;20191;-75
2021/12/27 15:29:21;;;;;;;25.20;14.23;;;-1.50;96.30;;;;;;5061539;28;20222;-75
2021/12/27 15:31:47;;;;;;;19.00;10.30;;;-1.50;96.30;;;;;;5068090;28;20685;-75
2021/12/27 15:34:13;;;;;;;20.17;10.83;;;-1.60;96.30;;;;;;5066592;28;20262;-75
2021/12/27 15:36:38;;;;;;;18.03;9.63;;;-1.60;96.30;;;;;;5066975;28;20600;-75
2021/12/27 15:39:04;;;;;;;9.23;6.50;;;-1.60;96.30;;;;;;5067523;28;20187;-75
2021/12/27 15:41:31;;;;;;;12.00;9.00;;;-1.60;96.30;;;;;;5067780;28;20191;-75
2021/12/27 15:43:56;;;;;;;16.43;9.00;;;-1.60;96.30;;;;;;5066851;28;20723;-75
2021/12/27 15:46:26;;;;;;;16.50;9.67;;;-1.70;96.30;;;;;;5065960;28;20471;-75
2021/12/27 15:48:51;;;;;;;12.80;8.10;;;-1.80;96.30;;;;;;5056320;28;20215;-76
2021/12/27 15:51:17;;;;;;;15.80;9.90;;;-1.90;96.30;;;;;;5054860;28;20436;-77
2021/12/27 15:53:42;;;;;;;18.63;9.53;;;-1.90;96.30;;;;;;5054973;28;20589;-77
2021/12/27 15:56:09;;;;;;;16.60;10.17;;;-2.00;96.30;;;;;;5046510;28;20590;-76
2021/12/27 15:58:38;;;;;;;19.37;9.13;;;-2.00;96.30;;;;;;5049887;28;20178;-75
2021/12/27 16:01:06;;;;;;;23.30;12.30;;;-2.00;96.30;;;;;;5042596;28;20442;-76
2021/12/27 16:03:32;;;;;;;16.27;10.40;;;-2.00;96.30;;;;;;5048619;28;20415;-76
2021/12/27 16:05:57;;;;;;;21.60;11.20;;;-2.10;96.30;;;;;;5042579;28;20453;-75
2021/12/27 16:08:23;;;;;;;17.07;12.33;;;-2.10;96.30;;;;;;5049412;28;20530;-75
2021/12/27 16:10:48;;;;;;;16.70;10.83;;;-2.10;96.30;;;;;;5047166;28;20211;-76
2021/12/27 16:13:14;;;;;;;22.90;13.43;;;-2.20;96.30;;;;;;5046778;28;20637;-75
2021/12/27 16:15:40;;;;;;;17.53;8.20;;;-2.20;96.30;;;;;;5040443;28;20186;-75
2021/12/27 16:18:05;;;;;;;20.57;11.27;;;-2.20;96.30;;;;;;5041202;28;20191;-75
2021/12/27 16:20:31;;;;;;;14.83;8.40;;;-2.20;96.30;;;;;;5049159;28;20231;-76
2021/12/27 16:22:57;;;;;;;22.53;11.10;;;-2.30;96.30;;;;;;5054310;28;20178;-76
2021/12/27 16:25:23;;;;;;;23.63;10.17;;;-2.20;96.30;;;;;;5053298;28;20167;-76
2021/12/27 16:27:49;;;;;;;20.93;11.50;;;-2.30;96.30;;;;;;5048810;28;20176;-76
2021/12/27 16:30:17;;;;;;;15.33;9.90;;;-2.30;96.30;;;;;;5049519;28;20918;-76
2021/12/27 16:32:44;;;;;;;17.43;10.53;;;-2.30;96.30;;;;;;5041448;28;20418;-76
2021/12/27 16:35:09;;;;;;;20.47;11.23;;;-2.40;96.30;;;;;;5045980;28;20779;-76
2021/12/27 16:37:35;;;;;;;18.70;7.27;;;-2.40;96.30;;;;;;5053711;28;20457;-76
2021/12/27 16:40:06;;;;;;;21.50;11.60;;;-2.50;96.30;;;;;;5049416;28;20175;-76
2021/12/27 16:42:32;;;;;;;21.03;12.20;;;-2.50;96.30;;;;;;5049806;28;20700;-76
2021/12/27 16:44:58;;;;;;;19.70;11.33;;;-2.50;96.30;;;;;;5046842;28;20819;-76